Time;durP1;ratioP1;P1;durP2;ratioP2;P2;SDS_P1;SDS_P2;PMS_P1;PMS_P2;Temp;Humidity;BMP_temperature;BMP_pressure;BME280_temperature;BME280_humidity;BME280_pressure;Samples;Min_cycle;Max_cycle;Signal;HPM_P1;HPM_P2
2022/07/30 00:00:10;;;;;;;12.60;7.10;;;;;;;;;;5031418;28;20402;-66
2022/07/30 00:02:36;;;;;;;14.60;7.37;;;;;;;;;;5031717;28;20033;-66
2022/07/30 00:05:02;;;;;;;13.30;7.30;;;;;;;;;;5031446;28;20029;-66
2022/07/30 00:07:27;;;;;;;12.60;7.03;;;;;;;;;;5031740;28;20508;-66
2022/07/30 00:09:52;;;;;;;11.77;7.70;;;;;;;;;;5031931;28;20021;-66
2022/07/30 00:12:18;;;;;;;12.10;7.00;;;;;;;;;;5031431;28;20032;-66
2022/07/30 00:14:43;;;;;;;11.65;7.22;;;;;;;;;;5031910;28;20036;-66
2022/07/30 00:17:08;;;;;;;17.83;8.07;;;;;;;;;;5030196;28;20026;-67
2022/07/30 00:19:33;;;;;;;11.00;7.37;;;;;;;;;;5031822;28;20044;-66
2022/07/30 00:21:59;;;;;;;13.05;8.18;;;;;;;;;;5032063;28;20055;-67
2022/07/30 00:24:24;;;;;;;16.40;8.40;;;;;;;;;;5029986;28;20057;-66
2022/07/30 00:26:50;;;;;;;17.40;8.97;;;;;;;;;;5034434;28;20045;-66
2022/07/30 00:29:15;;;;;;;12.80;8.30;;;;;;;;;;5031351;28;20032;-66
2022/07/30 00:31:40;;;;;;;13.17;8.63;;;;;;;;;;5031844;28;20026;-66
2022/07/30 00:34:06;;;;;;;14.63;9.07;;;;;;;;;;5029847;28;20458;-66
2022/07/30 00:36:31;;;;;;;12.63;8.97;;;;;;;;;;5030849;28;20765;-66
2022/07/30 00:38:57;;;;;;;13.07;9.23;;;;;;;;;;5031332;28;20025;-66
2022/07/30 00:41:22;;;;;;;17.07;9.80;;;;;;;;;;5031159;28;20117;-67
2022/07/30 00:43:48;;;;;;;16.27;10.37;;;;;;;;;;5030558;28;20421;-66
2022/07/30 00:46:15;;;;;;;17.73;10.40;;;;;;;;;;5030991;28;20021;-66
2022/07/30 00:48:41;;;;;;;15.57;10.53;;;;;;;;;;5030705;28;20060;-66
2022/07/30 00:51:06;;;;;;;17.83;10.70;;;;;;;;;;5031316;28;20048;-66
2022/07/30 00:53:31;;;;;;;14.77;9.63;;;;;;;;;;5029464;28;20033;-66
2022/07/30 00:55:57;;;;;;;16.47;9.63;;;;;;;;;;5031429;28;20022;-67
2022/07/30 00:58:22;;;;;;;14.97;8.53;;;;;;;;;;5029719;28;20025;-67
2022/07/30 01:00:47;;;;;;;13.63;7.73;;;;;;;;;;5030296;28;20075;-66
2022/07/30 01:03:12;;;;;;;15.10;9.33;;;;;;;;;;5029857;28;20108;-66
2022/07/30 01:05:38;;;;;;;17.03;10.57;;;;;;;;;;5030994;28;20057;-66
2022/07/30 01:08:03;;;;;;;14.03;9.10;;;;;;;;;;5030214;28;20034;-66
2022/07/30 01:10:28;;;;;;;18.00;11.00;;;;;;;;;;5031095;28;20028;-66
2022/07/30 01:12:53;;;;;;;15.73;11.70;;;;;;;;;;5029392;28;20018;-66
2022/07/30 01:15:19;;;;;;;16.07;11.70;;;;;;;;;;5030931;28;20103;-66
2022/07/30 01:17:47;;;;;;;16.90;11.37;;;;;;;;;;5031616;28;20034;-66
2022/07/30 01:20:15;;;;;;;18.77;11.83;;;;;;;;;;5030037;28;20164;-66
2022/07/30 01:22:53;;;;;;;16.57;11.93;;;;;;;;;;5031019;28;20032;-66
2022/07/30 01:25:31;;;;;;;18.03;11.27;;;;;;;;;;5031010;28;20383;-66
2022/07/30 01:28:02;;;;;;;17.20;11.57;;;;;;;;;;5030402;28;20089;-66
2022/07/30 01:30:29;;;;;;;17.33;11.77;;;;;;;;;;5014140;28;20021;-66
2022/07/30 01:32:56;;;;;;;16.63;11.40;;;;;;;;;;5030626;28;20018;-66
2022/07/30 01:35:23;;;;;;;19.00;11.83;;;;;;;;;;5032908;28;20028;-66
2022/07/30 01:37:50;;;;;;;15.60;11.83;;;;;;;;;;5031114;28;20492;-67
2022/07/30 01:40:17;;;;;;;19.30;13.30;;;;;;;;;;5029807;28;20028;-66
2022/07/30 01:42:42;;;;;;;24.73;13.10;;;;;;;;;;5030494;28;20037;-66
2022/07/30 01:45:08;;;;;;;18.57;13.27;;;;;;;;;;5030320;28;20037;-66
2022/07/30 01:47:35;;;;;;;23.23;15.00;;;;;;;;;;5030618;28;20014;-66
2022/07/30 01:50:01;;;;;;;18.80;13.90;;;;;;;;;;5030125;28;20022;-66
2022/07/30 01:52:29;;;;;;;19.83;13.47;;;;;;;;;;5029871;28;20025;-67
2022/07/30 01:54:55;;;;;;;20.13;13.73;;;;;;;;;;5030099;28;20079;-67
2022/07/30 01:57:21;;;;;;;20.33;12.97;;;;;;;;;;5030758;28;20053;-67
2022/07/30 01:59:49;;;;;;;19.23;14.33;;;;;;;;;;5029581;28;20087;-67
2022/07/30 02:02:14;;;;;;;18.47;14.43;;;;;;;;;;5030206;28;20473;-66
2022/07/30 02:04:40;;;;;;;21.80;14.93;;;;;;;;;;5030036;28;20056;-66
2022/07/30 02:07:09;;;;;;;20.67;14.00;;;;;;;;;;5030086;28;20476;-67
2022/07/30 02:09:36;;;;;;;20.27;13.47;;;;;;;;;;5024888;28;20044;-66
2022/07/30 02:14:49;;;;;;;23.40;17.03;;;;;;;;;;5029603;28;20055;-66
2022/07/30 02:17:17;;;;;;;29.63;18.43;;;;;;;;;;5034190;28;20049;-66
2022/07/30 02:19:44;;;;;;;29.07;21.23;;;;;;;;;;5033535;28;20025;-66
2022/07/30 02:22:11;;;;;;;29.30;19.83;;;;;;;;;;5034047;28;20110;-66
2022/07/30 02:24:37;;;;;;;27.97;19.07;;;;;;;;;;5033641;28;20032;-66
2022/07/30 02:27:09;;;;;;;31.70;20.77;;;;;;;;;;5033062;28;20373;-66
2022/07/30 02:29:35;;;;;;;24.77;16.10;;;;;;;;;;5034080;28;20032;-67
2022/07/30 02:32:04;;;;;;;22.40;14.50;;;;;;;;;;5033834;28;20026;-66
2022/07/30 02:34:31;;;;;;;20.43;14.30;;;;;;;;;;5033874;28;20029;-66
2022/07/30 02:36:57;;;;;;;23.73;14.47;;;;;;;;;;5032418;28;20033;-66
2022/07/30 02:39:22;;;;;;;18.30;13.93;;;;;;;;;;5034057;28;20397;-66
2022/07/30 02:41:48;;;;;;;22.67;15.30;;;;;;;;;;5033686;28;20025;-66
2022/07/30 02:44:15;;;;;;;24.67;18.53;;;;;;;;;;5033703;28;20535;-66
2022/07/30 02:46:41;;;;;;;23.13;17.17;;;;;;;;;;5032657;28;20014;-66
2022/07/30 02:49:08;;;;;;;24.63;17.07;;;;;;;;;;5033057;28;20022;-66
2022/07/30 02:51:34;;;;;;;24.27;17.57;;;;;;;;;;5033276;28;20021;-67
2022/07/30 02:54:02;;;;;;;31.10;20.13;;;;;;;;;;5033253;28;20495;-67
2022/07/30 02:56:28;;;;;;;31.20;20.60;;;;;;;;;;5033564;28;20350;-66
2022/07/30 02:58:55;;;;;;;29.90;21.57;;;;;;;;;;5031860;28;20100;-67
2022/07/30 03:01:21;;;;;;;30.77;20.60;;;;;;;;;;5033128;28;20604;-66
2022/07/30 03:03:47;;;;;;;27.83;20.70;;;;;;;;;;5032864;28;20026;-66
2022/07/30 03:06:13;;;;;;;36.47;20.43;;;;;;;;;;5034848;28;20040;-66
2022/07/30 03:08:39;;;;;;;40.40;21.13;;;;;;;;;;5032828;28;20370;-66
2022/07/30 03:11:05;;;;;;;31.47;21.93;;;;;;;;;;5032597;28;20047;-66
2022/07/30 03:13:30;;;;;;;35.70;21.13;;;;;;;;;;5033108;28;20033;-66
2022/07/30 03:15:56;;;;;;;29.37;20.47;;;;;;;;;;5032671;28;20025;-67
2022/07/30 03:18:22;;;;;;;30.97;20.40;;;;;;;;;;5031901;28;20406;-66
2022/07/30 03:20:49;;;;;;;29.90;21.37;;;;;;;;;;5032729;28;20029;-66
2022/07/30 03:23:16;;;;;;;21.43;16.23;;;;;;;;;;5032252;28;20029;-67
2022/07/30 03:25:44;;;;;;;27.30;20.57;;;;;;;;;;5032180;28;20021;-67
2022/07/30 03:28:10;;;;;;;29.60;19.83;;;;;;;;;;5032007;28;20076;-67
2022/07/30 03:30:36;;;;;;;23.77;16.00;;;;;;;;;;5032698;28;20063;-67
2022/07/30 03:33:01;;;;;;;21.27;15.87;;;;;;;;;;5032349;28;20099;-67
2022/07/30 03:35:26;;;;;;;40.37;23.60;;;;;;;;;;5032279;28;20031;-67
2022/07/30 03:37:55;;;;;;;29.23;19.93;;;;;;;;;;5032206;28;20094;-66
2022/07/30 03:40:21;;;;;;;30.57;19.17;;;;;;;;;;5032492;28;20146;-67
2022/07/30 03:42:47;;;;;;;26.07;18.37;;;;;;;;;;5032860;28;20538;-66
2022/07/30 03:45:12;;;;;;;31.33;20.97;;;;;;;;;;5032138;28;20104;-67
2022/07/30 03:47:38;;;;;;;36.60;25.60;;;;;;;;;;5029939;28;20096;-67
2022/07/30 03:50:04;;;;;;;35.63;25.30;;;;;;;;;;5029431;28;20021;-67
2022/07/30 03:52:32;;;;;;;35.13;24.43;;;;;;;;;;5012580;28;20038;-67
2022/07/30 03:54:57;;;;;;;48.70;30.37;;;;;;;;;;5029653;28;20120;-67
2022/07/30 03:57:24;;;;;;;38.47;27.33;;;;;;;;;;5032366;28;20532;-67
2022/07/30 03:59:50;;;;;;;39.37;27.43;;;;;;;;;;5032206;28;20033;-67
2022/07/30 04:02:16;;;;;;;42.20;28.30;;;;;;;;;;5032616;28;20369;-67
2022/07/30 04:04:42;;;;;;;37.77;27.37;;;;;;;;;;5031379;28;20017;-67
2022/07/30 04:07:07;;;;;;;39.03;27.90;;;;;;;;;;5032500;28;20540;-67
2022/07/30 04:09:33;;;;;;;41.30;27.57;;;;;;;;;;5032004;28;20014;-66
2022/07/30 04:11:58;;;;;;;39.37;28.83;;;;;;;;;;5032354;28;20036;-67
2022/07/30 04:14:23;;;;;;;38.10;27.20;;;;;;;;;;5031723;28;20096;-67
2022/07/30 04:16:50;;;;;;;37.47;27.50;;;;;;;;;;5031904;28;20075;-67
2022/07/30 04:19:18;;;;;;;38.17;24.30;;;;;;;;;;5031971;28;20037;-66
2022/07/30 04:21:46;;;;;;;22.80;16.17;;;;;;;;;;5032032;28;20481;-67
2022/07/30 04:24:11;;;;;;;21.00;15.63;;;;;;;;;;5031796;28;20025;-67
2022/07/30 04:26:37;;;;;;;27.27;18.40;;;;;;;;;;5032063;28;20025;-67
2022/07/30 04:29:04;;;;;;;27.60;19.70;;;;;;;;;;5031297;28;20031;-67
2022/07/30 04:31:34;;;;;;;24.33;17.17;;;;;;;;;;5031698;28;20394;-67
2022/07/30 04:33:59;;;;;;;26.27;18.40;;;;;;;;;;5030768;28;20591;-67
2022/07/30 04:36:24;;;;;;;28.33;18.00;;;;;;;;;;5031829;28;20025;-67
2022/07/30 04:38:49;;;;;;;29.13;20.57;;;;;;;;;;5031486;28;20049;-67
2022/07/30 04:41:14;;;;;;;30.50;20.33;;;;;;;;;;5031513;28;20065;-67
2022/07/30 04:43:40;;;;;;;32.03;21.53;;;;;;;;;;5031112;28;20059;-67
2022/07/30 04:46:05;;;;;;;28.30;20.13;;;;;;;;;;5031486;28;20079;-67
2022/07/30 04:48:30;;;;;;;30.77;19.77;;;;;;;;;;5031251;28;20025;-67
2022/07/30 04:50:58;;;;;;;26.70;19.83;;;;;;;;;;5031585;28;20072;-67
2022/07/30 04:53:24;;;;;;;37.57;22.40;;;;;;;;;;5031188;28;20021;-66
2022/07/30 04:55:50;;;;;;;28.47;18.93;;;;;;;;;;5030829;28;20075;-67
2022/07/30 04:58:17;;;;;;;27.63;18.87;;;;;;;;;;5031060;28;20034;-67
2022/07/30 05:00:44;;;;;;;25.53;18.43;;;;;;;;;;5031201;28;20017;-67
2022/07/30 05:03:11;;;;;;;28.17;21.30;;;;;;;;;;5030886;28;20021;-67
2022/07/30 05:05:36;;;;;;;19.87;14.97;;;;;;;;;;5031130;28;20104;-67
2022/07/30 05:08:02;;;;;;;24.23;16.70;;;;;;;;;;5030821;28;20060;-66
2022/07/30 05:10:28;;;;;;;24.53;17.20;;;;;;;;;;5031477;28;20025;-67
2022/07/30 05:12:53;;;;;;;17.47;13.87;;;;;;;;;;5030817;28;20471;-67
2022/07/30 05:15:19;;;;;;;20.03;14.23;;;;;;;;;;5031390;28;20029;-67
2022/07/30 05:17:44;;;;;;;15.07;11.50;;;;;;;;;;5031285;28;20034;-67
2022/07/30 05:20:09;;;;;;;17.90;10.90;;;;;;;;;;5029207;28;20034;-67
2022/07/30 05:22:35;;;;;;;13.77;10.50;;;;;;;;;;5030687;28;20036;-67
2022/07/30 05:25:00;;;;;;;14.70;9.30;;;;;;;;;;5030542;28;20032;-67
2022/07/30 05:27:25;;;;;;;15.05;9.85;;;;;;;;;;5031321;28;20102;-67
2022/07/30 05:29:50;;;;;;;14.70;8.23;;;;;;;;;;5030597;28;20481;-67
2022/07/30 05:32:16;;;;;;;14.18;7.82;;;;;;;;;;5030962;28;20026;-67
2022/07/30 05:34:41;;;;;;;9.90;6.63;;;;;;;;;;5030553;28;20026;-67
2022/07/30 05:37:06;;;;;;;17.00;7.10;;;;;;;;;;5030764;28;20039;-67
2022/07/30 05:39:31;;;;;;;11.95;7.28;;;;;;;;;;5030789;28;20063;-67
2022/07/30 05:41:57;;;;;;;14.18;7.18;;;;;;;;;;5031152;28;20053;-67
2022/07/30 05:44:22;;;;;;;11.85;6.85;;;;;;;;;;5030496;28;20393;-67
2022/07/30 05:46:48;;;;;;;10.77;6.38;;;;;;;;;;5034608;28;20030;-67
2022/07/30 05:49:14;;;;;;;10.48;7.00;;;;;;;;;;5034599;28;20045;-67
2022/07/30 05:51:39;;;;;;;13.77;7.80;;;;;;;;;;5034793;28;20021;-67
2022/07/30 05:54:05;;;;;;;10.57;6.72;;;;;;;;;;5034588;28;20037;-67
2022/07/30 05:56:30;;;;;;;12.15;6.32;;;;;;;;;;5034791;28;20461;-67
2022/07/30 05:58:55;;;;;;;10.43;6.55;;;;;;;;;;5034362;28;20557;-67
2022/07/30 06:01:20;;;;;;;10.93;6.28;;;;;;;;;;5034615;28;20021;-68
2022/07/30 06:03:46;;;;;;;10.23;6.20;;;;;;;;;;5034152;28;20037;-68
2022/07/30 06:06:11;;;;;;;10.30;6.38;;;;;;;;;;5034686;28;20021;-68
2022/07/30 06:08:37;;;;;;;12.60;5.70;;;;;;;;;;5034302;28;20029;-67
2022/07/30 06:11:02;;;;;;;10.48;6.43;;;;;;;;;;5032747;28;20465;-67
2022/07/30 06:13:28;;;;;;;12.77;7.00;;;;;;;;;;5034034;28;20032;-68
2022/07/30 06:15:53;;;;;;;13.30;6.30;;;;;;;;;;5034221;28;20045;-67
2022/07/30 06:18:18;;;;;;;13.23;6.50;;;;;;;;;;5034315;28;20030;-67
2022/07/30 06:20:44;;;;;;;11.15;5.97;;;;;;;;;;5034451;28;20114;-67
2022/07/30 06:23:09;;;;;;;13.90;6.20;;;;;;;;;;5033996;28;20082;-67
2022/07/30 06:25:34;;;;;;;11.60;6.15;;;;;;;;;;5034326;28;20096;-68
2022/07/30 06:27:59;;;;;;;12.60;6.07;;;;;;;;;;5033621;28;20064;-67
2022/07/30 06:30:25;;;;;;;10.40;5.75;;;;;;;;;;5034124;28;20053;-67
2022/07/30 06:32:50;;;;;;;13.27;5.38;;;;;;;;;;5033954;28;20029;-67
2022/07/30 06:35:15;;;;;;;12.45;5.60;;;;;;;;;;5033697;28;20025;-67
2022/07/30 06:37:41;;;;;;;7.72;5.43;;;;;;;;;;5034122;28;20022;-68
2022/07/30 06:40:07;;;;;;;14.55;5.70;;;;;;;;;;5033814;28;20028;-67
2022/07/30 06:42:32;;;;;;;10.82;5.38;;;;;;;;;;5033695;28;20022;-67
2022/07/30 06:44:58;;;;;;;8.52;5.38;;;;;;;;;;5033362;28;20025;-67
2022/07/30 06:47:27;;;;;;;9.55;5.72;;;;;;;;;;5033956;28;20017;-67
2022/07/30 06:49:53;;;;;;;9.25;5.38;;;;;;;;;;5033343;28;20049;-67
2022/07/30 06:52:18;;;;;;;10.32;5.57;;;;;;;;;;5033660;28;20123;-67
2022/07/30 06:54:47;;;;;;;10.27;5.65;;;;;;;;;;5033419;28;20112;-68
2022/07/30 06:57:12;;;;;;;12.70;5.38;;;;;;;;;;5032781;28;20056;-68
2022/07/30 06:59:37;;;;;;;10.38;5.50;;;;;;;;;;5032923;28;20438;-68
2022/07/30 07:02:02;;;;;;;10.55;5.78;;;;;;;;;;5033684;28;20436;-68
2022/07/30 07:04:28;;;;;;;12.05;6.22;;;;;;;;;;5033160;28;20428;-68
2022/07/30 07:06:53;;;;;;;14.20;6.82;;;;;;;;;;5033441;28;20383;-67
2022/07/30 07:09:18;;;;;;;11.20;6.82;;;;;;;;;;5033281;28;20391;-67
2022/07/30 07:11:43;;;;;;;11.77;6.63;;;;;;;;;;5033168;28;20029;-68
2022/07/30 07:14:09;;;;;;;11.23;6.85;;;;;;;;;;5032974;28;20095;-67
2022/07/30 07:16:34;;;;;;;9.63;6.55;;;;;;;;;;5033339;28;20029;-68
2022/07/30 07:18:59;;;;;;;12.35;6.00;;;;;;;;;;5033090;28;20040;-68
2022/07/30 07:21:24;;;;;;;12.65;6.45;;;;;;;;;;5033323;28;20029;-68
2022/07/30 07:23:49;;;;;;;10.13;6.03;;;;;;;;;;5032852;28;20034;-68
2022/07/30 07:26:15;;;;;;;10.77;5.63;;;;;;;;;;5032725;28;20018;-68
2022/07/30 07:28:41;;;;;;;10.68;5.95;;;;;;;;;;5032861;28;20044;-68
2022/07/30 07:31:07;;;;;;;12.73;6.18;;;;;;;;;;5033267;28;20009;-68
2022/07/30 07:33:32;;;;;;;11.73;6.25;;;;;;;;;;5032431;28;20029;-67
2022/07/30 07:35:57;;;;;;;8.82;6.30;;;;;;;;;;5032610;28;20125;-67
2022/07/30 07:38:22;;;;;;;13.95;6.55;;;;;;;;;;5032857;28;20060;-67
2022/07/30 07:40:48;;;;;;;10.93;6.50;;;;;;;;;;5032892;28;20053;-68
2022/07/30 07:43:13;;;;;;;16.73;6.45;;;;;;;;;;5032447;28;20041;-67
2022/07/30 07:45:39;;;;;;;12.68;6.10;;;;;;;;;;5032575;28;20025;-67
2022/07/30 07:48:04;;;;;;;12.40;5.93;;;;;;;;;;5032229;28;20025;-68
2022/07/30 07:50:29;;;;;;;12.00;6.45;;;;;;;;;;5032761;28;20026;-68
2022/07/30 07:52:55;;;;;;;10.13;6.85;;;;;;;;;;5032167;28;20080;-68
2022/07/30 07:55:20;;;;;;;10.35;6.45;;;;;;;;;;5032477;28;20037;-68
2022/07/30 07:57:45;;;;;;;9.13;6.38;;;;;;;;;;5032384;28;20096;-68
2022/07/30 08:00:13;;;;;;;11.98;6.82;;;;;;;;;;5032413;28;20492;-68
2022/07/30 08:02:38;;;;;;;9.85;6.53;;;;;;;;;;5032490;28;20033;-68
2022/07/30 08:05:04;;;;;;;11.75;7.03;;;;;;;;;;5032244;28;20047;-68
2022/07/30 08:07:30;;;;;;;13.23;6.50;;;;;;;;;;5032068;28;20485;-68
2022/07/30 08:09:55;;;;;;;15.38;6.25;;;;;;;;;;5031484;28;20017;-67
2022/07/30 08:12:20;;;;;;;10.60;6.30;;;;;;;;;;5032374;28;20025;-68
2022/07/30 08:14:46;;;;;;;11.07;6.97;;;;;;;;;;5031988;28;20064;-67
2022/07/30 08:17:11;;;;;;;11.68;5.60;;;;;;;;;;5032299;28;20036;-67
2022/07/30 08:19:36;;;;;;;10.57;5.60;;;;;;;;;;5031892;28;20129;-67
2022/07/30 08:22:01;;;;;;;10.32;5.57;;;;;;;;;;5032288;28;20029;-67
2022/07/30 08:24:26;;;;;;;7.80;5.47;;;;;;;;;;5031841;28;20032;-67
2022/07/30 08:26:52;;;;;;;7.68;5.10;;;;;;;;;;5032093;28;20028;-67
2022/07/30 08:29:17;;;;;;;10.73;5.38;;;;;;;;;;5031717;28;20045;-67
2022/07/30 08:31:42;;;;;;;15.57;5.97;;;;;;;;;;5032077;28;20041;-67
2022/07/30 08:34:08;;;;;;;8.98;5.60;;;;;;;;;;5031828;28;20489;-68
2022/07/30 08:36:33;;;;;;;8.43;5.00;;;;;;;;;;5031872;28;20499;-67
2022/07/30 08:38:58;;;;;;;12.82;5.32;;;;;;;;;;5030994;28;20025;-68
2022/07/30 08:41:24;;;;;;;11.20;5.78;;;;;;;;;;5031587;28;20033;-67
2022/07/30 08:43:49;;;;;;;16.95;4.95;;;;;;;;;;5031327;28;20014;-67
2022/07/30 08:46:16;;;;;;;12.75;5.10;;;;;;;;;;5031893;28;20139;-67
2022/07/30 08:48:42;;;;;;;8.98;4.30;;;;;;;;;;5031421;28;20101;-67
2022/07/30 08:51:07;;;;;;;9.27;4.70;;;;;;;;;;5031579;28;20053;-67
2022/07/30 08:53:33;;;;;;;10.63;5.00;;;;;;;;;;5031464;28;20037;-67
2022/07/30 08:55:59;;;;;;;9.25;4.90;;;;;;;;;;5031536;28;20083;-67
2022/07/30 08:58:32;;;;;;;10.85;4.70;;;;;;;;;;5031241;28;20104;-67
2022/07/30 09:00:57;;;;;;;10.70;4.60;;;;;;;;;;5031270;28;20078;-68
2022/07/30 09:03:22;;;;;;;8.63;4.10;;;;;;;;;;5030731;28;20021;-67
2022/07/30 09:05:48;;;;;;;10.30;4.15;;;;;;;;;;5031191;28;20386;-67
2022/07/30 09:08:13;;;;;;;9.88;3.63;;;;;;;;;;5030974;28;20508;-67
2022/07/30 09:10:41;;;;;;;9.52;3.60;;;;;;;;;;5031478;28;20028;-68
2022/07/30 09:13:21;;;;;;;9.88;3.78;;;;;;;;;;5031210;28;20072;-67
2022/07/30 09:15:47;;;;;;;12.50;3.75;;;;;;;;;;5031367;28;20382;-67
2022/07/30 09:18:13;;;;;;;10.38;3.42;;;;;;;;;;5030924;28;20034;-65
2022/07/30 09:20:38;;;;;;;6.70;3.05;;;;;;;;;;5030830;28;20029;-65
2022/07/30 09:23:04;;;;;;;8.18;3.58;;;;;;;;;;5030353;28;20104;-65
2022/07/30 09:25:43;;;;;;;10.10;3.50;;;;;;;;;;5031207;28;20386;-65
2022/07/30 09:28:09;;;;;;;10.13;3.90;;;;;;;;;;5030645;28;20021;-66
2022/07/30 09:30:52;;;;;;;8.18;3.92;;;;;;;;;;5031303;28;20093;-65
2022/07/30 09:33:37;;;;;;;9.80;3.60;;;;;;;;;;5031053;28;20029;-65
2022/07/30 09:36:04;;;;;;;5.82;3.22;;;;;;;;;;5029256;28;20025;-64
2022/07/30 09:38:40;;;;;;;8.98;3.90;;;;;;;;;;5030969;28;20386;-65
2022/07/30 09:41:05;;;;;;;7.72;3.80;;;;;;;;;;5031068;28;20025;-65
2022/07/30 09:43:30;;;;;;;7.53;3.30;;;;;;;;;;5030471;28;20025;-65
2022/07/30 09:46:00;;;;;;;10.57;3.00;;;;;;;;;;5031047;28;20025;-65
2022/07/30 09:48:26;;;;;;;8.15;2.67;;;;;;;;;;5030882;28;20018;-65
2022/07/30 09:50:51;;;;;;;9.43;2.83;;;;;;;;;;5030959;28;20021;-65
2022/07/30 09:53:17;;;;;;;8.18;2.28;;;;;;;;;;5030652;28;20120;-65
2022/07/30 09:55:43;;;;;;;7.18;2.50;;;;;;;;;;5030735;28;20025;-65
2022/07/30 09:58:09;;;;;;;7.65;2.80;;;;;;;;;;5030764;28;20093;-65
2022/07/30 10:00:35;;;;;;;7.63;3.00;;;;;;;;;;5030713;28;20072;-65
2022/07/30 10:03:02;;;;;;;9.05;3.28;;;;;;;;;;5030547;28;20516;-65
2022/07/30 10:05:27;;;;;;;4.88;2.50;;;;;;;;;;5030625;28;20478;-65
2022/07/30 10:07:53;;;;;;;7.28;3.22;;;;;;;;;;5030835;28;20027;-66
2022/07/30 10:10:19;;;;;;;7.03;2.85;;;;;;;;;;5030837;28;20033;-65
2022/07/30 10:12:45;;;;;;;8.18;3.00;;;;;;;;;;5030965;28;20644;-65
2022/07/30 10:15:10;;;;;;;7.07;2.60;;;;;;;;;;5030421;28;20112;-69
2022/07/30 10:17:37;;;;;;;6.20;2.78;;;;;;;;;;5031111;28;20024;-67
2022/07/30 10:20:03;;;;;;;7.88;2.58;;;;;;;;;;5030685;28;20037;-66
2022/07/30 10:22:28;;;;;;;8.70;2.60;;;;;;;;;;5030637;28;20075;-67
2022/07/30 10:24:54;;;;;;;7.50;2.30;;;;;;;;;;5030450;28;20021;-67
2022/07/30 10:27:19;;;;;;;6.43;2.28;;;;;;;;;;5030541;28;20017;-66
2022/07/30 10:29:45;;;;;;;6.10;2.00;;;;;;;;;;5030494;28;20030;-66
2022/07/30 10:32:10;;;;;;;7.43;2.30;;;;;;;;;;5031500;28;20105;-66
2022/07/30 10:34:37;;;;;;;5.90;2.00;;;;;;;;;;5033472;28;20045;-66
2022/07/30 10:37:03;;;;;;;6.30;2.30;;;;;;;;;;5033780;28;20025;-66
2022/07/30 10:39:31;;;;;;;6.30;2.00;;;;;;;;;;5033683;28;20035;-66
2022/07/30 10:42:05;;;;;;;7.50;2.72;;;;;;;;;;5034062;28;20013;-66
2022/07/30 10:44:30;;;;;;;6.82;2.30;;;;;;;;;;5033656;28;20406;-66
2022/07/30 10:47:06;;;;;;;5.60;2.55;;;;;;;;;;5034085;28;20017;-66
2022/07/30 10:49:31;;;;;;;6.10;2.38;;;;;;;;;;5033155;28;20021;-67
2022/07/30 10:51:56;;;;;;;7.38;2.40;;;;;;;;;;5033517;28;20034;-66
2022/07/30 10:54:34;;;;;;;5.93;2.40;;;;;;;;;;5033758;28;20047;-66
2022/07/30 10:57:12;;;;;;;6.45;2.20;;;;;;;;;;5033666;28;20048;-66
2022/07/30 10:59:57;;;;;;;8.10;2.40;;;;;;;;;;5033253;28;20105;-65
2022/07/30 11:02:26;;;;;;;4.93;1.83;;;;;;;;;;5032793;28;20034;-66
2022/07/30 11:05:11;;;;;;;6.15;1.88;;;;;;;;;;5032814;28;20386;-66
2022/07/30 11:07:36;;;;;;;5.50;2.00;;;;;;;;;;5033736;28;20022;-66
2022/07/30 11:10:01;;;;;;;6.13;1.75;;;;;;;;;;5033466;28;20128;-66
2022/07/30 11:12:42;;;;;;;5.45;1.60;;;;;;;;;;5033398;28;20075;-66
2022/07/30 11:15:08;;;;;;;5.35;1.73;;;;;;;;;;5032402;28;20103;-66
2022/07/30 11:17:52;;;;;;;5.70;2.10;;;;;;;;;;5033552;28;20022;-65
2022/07/30 11:20:19;;;;;;;5.57;2.20;;;;;;;;;;5032837;28;20028;-66
2022/07/30 11:22:47;;;;;;;10.18;3.03;;;;;;;;;;5033219;28;20037;-65
2022/07/30 11:25:22;;;;;;;5.00;2.20;;;;;;;;;;5032867;28;20112;-65
2022/07/30 11:27:49;;;;;;;8.60;2.10;;;;;;;;;;5032831;28;20029;-65
2022/07/30 11:30:14;;;;;;;8.05;2.40;;;;;;;;;;5032567;28;20043;-65
2022/07/30 11:32:39;;;;;;;5.63;1.97;;;;;;;;;;5032970;28;20104;-65
2022/07/30 11:35:07;;;;;;;5.75;2.00;;;;;;;;;;5032808;28;20657;-66
2022/07/30 11:37:53;;;;;;;6.00;1.77;;;;;;;;;;5032822;28;20025;-65
2022/07/30 11:40:18;;;;;;;5.68;1.63;;;;;;;;;;5032445;28;20490;-65
2022/07/30 11:42:43;;;;;;;6.25;1.67;;;;;;;;;;5032218;28;20029;-65
2022/07/30 11:45:15;;;;;;;7.22;1.95;;;;;;;;;;5032149;28;20033;-65
2022/07/30 11:47:50;;;;;;;6.03;1.80;;;;;;;;;;5032866;28;20022;-65
2022/07/30 11:50:20;;;;;;;6.18;1.83;;;;;;;;;;5032151;28;20033;-65
2022/07/30 11:52:49;;;;;;;5.18;1.73;;;;;;;;;;5032535;28;20136;-65
2022/07/30 11:55:20;;;;;;;5.85;1.80;;;;;;;;;;5032534;28;20494;-66
2022/07/30 11:57:46;;;;;;;4.97;1.60;;;;;;;;;;5032653;28;20083;-66
2022/07/30 12:00:11;;;;;;;7.60;1.92;;;;;;;;;;5032092;28;20033;-66
2022/07/30 12:02:36;;;;;;;6.35;1.90;;;;;;;;;;5032420;28;20029;-66
2022/07/30 12:05:03;;;;;;;6.35;1.88;;;;;;;;;;5031935;28;20057;-66
2022/07/30 12:07:28;;;;;;;6.32;2.08;;;;;;;;;;5032416;28;20458;-65
2022/07/30 12:10:10;;;;;;;6.57;1.98;;;;;;;;;;5031696;28;20021;-65
2022/07/30 12:12:35;;;;;;;5.32;1.50;;;;;;;;;;5031832;28;20047;-65
2022/07/30 12:15:00;;;;;;;4.65;1.67;;;;;;;;;;5031771;28;20107;-66
2022/07/30 12:17:39;;;;;;;6.43;1.57;;;;;;;;;;5032065;28;20024;-65
2022/07/30 12:20:12;;;;;;;6.35;1.60;;;;;;;;;;5032036;28;20363;-65
2022/07/30 12:22:37;;;;;;;4.50;1.85;;;;;;;;;;5032188;28;20418;-65
2022/07/30 12:25:07;;;;;;;5.80;1.60;;;;;;;;;;5031633;28;20151;-65
2022/07/30 12:27:32;;;;;;;4.45;1.88;;;;;;;;;;5031202;28;20009;-65
2022/07/30 12:29:57;;;;;;;6.75;1.90;;;;;;;;;;5031290;28;20052;-65
2022/07/30 12:32:22;;;;;;;6.50;2.00;;;;;;;;;;5031982;28;20018;-65
2022/07/30 12:34:57;;;;;;;9.23;1.90;;;;;;;;;;5031235;28;20032;-66
2022/07/30 12:37:22;;;;;;;9.23;2.13;;;;;;;;;;5031945;28;20104;-65
2022/07/30 12:39:48;;;;;;;10.60;2.33;;;;;;;;;;5031321;28;20584;-65
2022/07/30 12:42:17;;;;;;;5.70;1.80;;;;;;;;;;5031900;28;20097;-66
2022/07/30 12:44:47;;;;;;;7.18;1.85;;;;;;;;;;5031234;28;20030;-66
2022/07/30 12:47:33;;;;;;;5.90;2.00;;;;;;;;;;5031853;28;20089;-65
2022/07/30 12:49:59;;;;;;;6.13;2.10;;;;;;;;;;5030183;28;20037;-65
2022/07/30 12:52:25;;;;;;;4.70;1.80;;;;;;;;;;5031480;28;20034;-65
2022/07/30 12:54:58;;;;;;;8.20;2.30;;;;;;;;;;5030495;28;20362;-65
2022/07/30 12:57:23;;;;;;;6.05;2.08;;;;;;;;;;5031356;28;20017;-65
2022/07/30 12:59:59;;;;;;;6.05;1.95;;;;;;;;;;5031331;28;20102;-65
2022/07/30 13:02:31;;;;;;;5.25;1.90;;;;;;;;;;5031544;28;20029;-65
2022/07/30 13:04:56;;;;;;;7.43;1.90;;;;;;;;;;5031142;28;20025;-66
2022/07/30 13:07:22;;;;;;;5.63;2.20;;;;;;;;;;5030720;28;20024;-66
2022/07/30 13:10:04;;;;;;;6.50;2.00;;;;;;;;;;5031196;28;20022;-65
2022/07/30 13:12:29;;;;;;;6.15;1.60;;;;;;;;;;5031290;28;20083;-65
2022/07/30 13:14:54;;;;;;;6.85;1.70;;;;;;;;;;5030839;28;20030;-65
2022/07/30 13:17:20;;;;;;;4.10;1.50;;;;;;;;;;5031080;28;20064;-65
2022/07/30 13:19:45;;;;;;;3.60;1.50;;;;;;;;;;5030947;28;20037;-65
2022/07/30 13:22:11;;;;;;;7.47;1.70;;;;;;;;;;5031068;28;20029;-65
2022/07/30 13:24:38;;;;;;;4.72;1.80;;;;;;;;;;5030169;28;20060;-65
2022/07/30 13:27:03;;;;;;;4.18;1.50;;;;;;;;;;5031326;28;20025;-65
2022/07/30 13:29:28;;;;;;;4.40;1.70;;;;;;;;;;5030715;28;20104;-65
2022/07/30 13:31:53;;;;;;;5.15;1.67;;;;;;;;;;5031278;28;20524;-65
2022/07/30 13:34:19;;;;;;;8.55;2.00;;;;;;;;;;5030676;28;20496;-65
2022/07/30 13:36:44;;;;;;;6.80;1.70;;;;;;;;;;5030747;28;20031;-65
2022/07/30 13:39:10;;;;;;;7.10;1.90;;;;;;;;;;5030932;28;20064;-65
2022/07/30 13:41:36;;;;;;;5.05;1.90;;;;;;;;;;5031144;28;20097;-65
2022/07/30 13:44:02;;;;;;;6.93;2.00;;;;;;;;;;5030750;28;20100;-65
2022/07/30 13:46:27;;;;;;;6.28;1.80;;;;;;;;;;5031104;28;20022;-66
2022/07/30 13:48:52;;;;;;;4.32;1.80;;;;;;;;;;5030683;28;20013;-66
2022/07/30 13:51:18;;;;;;;4.60;1.63;;;;;;;;;;5031063;28;20101;-66
2022/07/30 13:53:43;;;;;;;3.55;1.50;;;;;;;;;;5030662;28;20113;-66
2022/07/30 13:56:08;;;;;;;7.03;1.50;;;;;;;;;;5029510;28;20025;-66
2022/07/30 13:58:33;;;;;;;8.88;1.95;;;;;;;;;;5030719;28;20129;-66
2022/07/30 14:00:59;;;;;;;4.97;1.60;;;;;;;;;;5030726;28;20555;-66
2022/07/30 14:03:24;;;;;;;6.32;1.73;;;;;;;;;;5030557;28;20030;-66
2022/07/30 14:05:49;;;;;;;6.57;1.83;;;;;;;;;;5031114;28;20018;-66
2022/07/30 14:08:14;;;;;;;9.98;1.95;;;;;;;;;;5034332;28;20036;-65
2022/07/30 14:10:40;;;;;;;10.57;2.10;;;;;;;;;;5034423;28;20740;-65
2022/07/30 14:13:05;;;;;;;7.70;2.05;;;;;;;;;;5034263;28;20032;-65
2022/07/30 14:15:31;;;;;;;12.18;2.33;;;;;;;;;;5034266;28;20116;-66
2022/07/30 14:17:57;;;;;;;5.38;2.03;;;;;;;;;;5034341;28;20017;-65
2022/07/30 14:20:22;;;;;;;7.05;1.95;;;;;;;;;;5014593;28;20458;-65
2022/07/30 14:22:48;;;;;;;11.88;2.50;;;;;;;;;;5014714;28;20029;-65
2022/07/30 14:25:13;;;;;;;4.72;2.10;;;;;;;;;;5032792;28;20034;-65
2022/07/30 14:27:38;;;;;;;6.75;2.20;;;;;;;;;;5034017;28;20020;-65
2022/07/30 14:30:04;;;;;;;6.43;2.20;;;;;;;;;;5033719;28;20105;-65